Eurocargo Valencia — IBGZ — position and weather

sailwx.info

Track history (hours):
 
Tides and Currents Weather Stations Pressure Air Temp Water Temp Dewpoint Dewpoint Depression Visibility Wind Speed Wind Dir Waves Ship Positions

Eurocargo Valencia

Last reported at 2015-Jul-28 16:21 UTC. Time now 2015-Aug-01 09:44 UTC.
Position N 42°22' E 017°39'.

Length 196 m; draft 6.2 m.

Type: Ship (hazmat cat A). MMSI: 247579000.

Date/timePositionNaut miles runAvg speedWind from/ knotsBaromVisibWave heightAir tempDewpointWater temp
2015-Jul-28 16:21N 42°22' E 017°39'1316.6
2015-Jul-28 15:33N 42°19' E 017°56'1616.6
2015-Jul-28 14:33N 42°15' E 018°17'1716.5
2015-Jul-28 13:33N 42°11' E 018°39'1616.3
2015-Jul-28 12:33N 42°07' E 019°01'5 1.0
2015-Jul-28 07:33N 42°02' E 019°02'38414.1
2015-Jul-27 04:14N 36°35' E 023°23'2816.6
2015-Jul-27 02:33N 36°59' E 023°40'2216.8
2015-Jul-27 01:15N 37°18' E 023°55'3216.3
2015-Jul-26 23:18N 37°43' E 024°18'67 1.4
2015-Jul-25 01:09N 37°50' E 025°42'1016.4
2015-Jul-25 00:33N 37°40' E 025°45'1717.1
2015-Jul-24 23:33N 37°25' E 025°55'1716.4
2015-Jul-24 22:30N 37°10' E 026°05'1516.1
2015-Jul-24 21:33N 36°56' E 026°14'1616.0
2015-Jul-24 20:33N 36°45' E 026°28'1716.7
2015-Jul-24 19:31N 36°32' E 026°42'6616.3
2015-Jul-24 15:31N 35°42' E 027°34'11416.3
2015-Jul-24 08:33N 33°57' E 028°28'16616.6
2015-Jul-23 22:31N 31°23' E 029°42'1414.6
2015-Jul-23 21:33N 31°10' E 029°49'4 0.5
2015-Jul-23 14:05N 31°12' E 029°53'3 0.4
2015-Jul-23 06:33N 31°10' E 029°50'3 3.5
2015-Jul-23 05:33N 31°12' E 029°48'6 5.6
2015-Jul-23 04:33N 31°18' E 029°46'1914.8
2015-Jul-23 03:15N 31°33' E 029°59'1216.4
2015-Jul-23 02:33N 31°42' E 030°08'1616.6
2015-Jul-23 01:34N 31°53' E 030°22'1716.8
2015-Jul-23 00:33N 31°59' E 030°41'1717.1
2015-Jul-22 23:34N 32°06' E 030°59'1716.6
2015-Jul-22 22:33N 32°12' E 031°18'1616.4
2015-Jul-22 21:33N 32°17' E 031°36'1616.2
2015-Jul-22 20:33N 32°23' E 031°54'1616.2
2015-Jul-22 19:33N 32°29' E 032°12'1616.2
2015-Jul-22 18:33N 32°34' E 032°30'1616.0
2015-Jul-22 17:34N 32°40' E 032°48'1615.9
2015-Jul-22 16:34N 32°46' E 033°05'1615.8
2015-Jul-22 15:34N 32°51' E 033°23'1616.0
2015-Jul-22 14:34N 32°56' E 033°41'1615.7
2015-Jul-22 13:33N 33°01' E 033°59'1515.4
2015-Jul-22 12:33N 32°60' E 034°17'1615.9
2015-Jul-22 11:33N 32°56' E 034°36'1616.2
2015-Jul-22 10:33N 32°53' E 034°55'12 1.5
2015-Jul-22 02:13N 32°55' E 034°40'1116.0
2015-Jul-22 01:32N 32°57' E 034°27'1616.0
2015-Jul-22 00:30N 32°60' E 034°08'1515.7
2015-Jul-21 23:33N 33°04' E 033°51'1615.6
2015-Jul-21 22:33N 33°09' E 033°34'1515.5
2015-Jul-21 21:33N 33°14' E 033°16'1515.3
2015-Jul-21 20:33N 33°20' E 032°59'1615.6
2015-Jul-21 19:32N 33°25' E 032°41'1616.0
2015-Jul-21 18:33N 33°31' E 032°24'1616.0
2015-Jul-21 17:33N 33°37' E 032°06'1716.5
2015-Jul-21 16:33N 33°43' E 031°48'1616.3
2015-Jul-21 15:33N 33°48' E 031°29'1716.1
2015-Jul-21 14:30N 33°54' E 031°10'1616.3
2015-Jul-21 13:32N 33°60' E 030°52'1716.3
2015-Jul-21 12:27N 34°06' E 030°32'13116.5
2015-Jul-21 04:33N 34°53' E 028°04'1616.1
2015-Jul-21 03:33N 34°58' E 027°46'13116.4
2015-Jul-20 19:33N 35°35' E 025°11'2216.5
2015-Jul-20 18:13N 35°38' E 024°44'1416.7
2015-Jul-20 17:24N 35°39' E 024°28'38214.2
2015-Jul-19 14:33N 40°09' E 018°44'  
Track history (hours):
 
Tides and Currents Weather Stations Pressure Air Temp Water Temp Dewpoint Dewpoint Depression Visibility Wind Speed Wind Dir Waves Ship Positions

Eurocargo Valencia

Last reported at 2015-Jul-28 16:21 UTC. Time now 2015-Aug-01 09:44 UTC.
Position N 42°22' E 017°39'.

Length 196 m; draft 6.2 m.

Type: Ship (hazmat cat A). MMSI: 247579000.

Date/timePositionNaut miles runAvg speedWind from/ knotsBaromVisibWave heightAir tempDewpointWater temp
2015-Jul-28 16:21N 42°22' E 017°39'1316.6
2015-Jul-28 15:33N 42°19' E 017°56'1616.6
2015-Jul-28 14:33N 42°15' E 018°17'1716.5
2015-Jul-28 13:33N 42°11' E 018°39'1616.3
2015-Jul-28 12:33N 42°07' E 019°01'5 1.0
2015-Jul-28 07:33N 42°02' E 019°02'38414.1
2015-Jul-27 04:14N 36°35' E 023°23'2816.6
2015-Jul-27 02:33N 36°59' E 023°40'2216.8
2015-Jul-27 01:15N 37°18' E 023°55'3216.3
2015-Jul-26 23:18N 37°43' E 024°18'67 1.4
2015-Jul-25 01:09N 37°50' E 025°42'1016.4
2015-Jul-25 00:33N 37°40' E 025°45'1717.1
2015-Jul-24 23:33N 37°25' E 025°55'1716.4
2015-Jul-24 22:30N 37°10' E 026°05'1516.1
2015-Jul-24 21:33N 36°56' E 026°14'1616.0
2015-Jul-24 20:33N 36°45' E 026°28'1716.7
2015-Jul-24 19:31N 36°32' E 026°42'6616.3
2015-Jul-24 15:31N 35°42' E 027°34'11416.3
2015-Jul-24 08:33N 33°57' E 028°28'16616.6
2015-Jul-23 22:31N 31°23' E 029°42'1414.6
2015-Jul-23 21:33N 31°10' E 029°49'4 0.5
2015-Jul-23 14:05N 31°12' E 029°53'3 0.4
2015-Jul-23 06:33N 31°10' E 029°50'3 3.5
2015-Jul-23 05:33N 31°12' E 029°48'6 5.6
2015-Jul-23 04:33N 31°18' E 029°46'1914.8
2015-Jul-23 03:15N 31°33' E 029°59'1216.4
2015-Jul-23 02:33N 31°42' E 030°08'1616.6
2015-Jul-23 01:34N 31°53' E 030°22'1716.8
2015-Jul-23 00:33N 31°59' E 030°41'1717.1
2015-Jul-22 23:34N 32°06' E 030°59'1716.6
2015-Jul-22 22:33N 32°12' E 031°18'1616.4
2015-Jul-22 21:33N 32°17' E 031°36'1616.2
2015-Jul-22 20:33N 32°23' E 031°54'1616.2
2015-Jul-22 19:33N 32°29' E 032°12'1616.2
2015-Jul-22 18:33N 32°34' E 032°30'1616.0
2015-Jul-22 17:34N 32°40' E 032°48'1615.9
2015-Jul-22 16:34N 32°46' E 033°05'1615.8
2015-Jul-22 15:34N 32°51' E 033°23'1616.0
2015-Jul-22 14:34N 32°56' E 033°41'1615.7
2015-Jul-22 13:33N 33°01' E 033°59'1515.4
2015-Jul-22 12:33N 32°60' E 034°17'1615.9
2015-Jul-22 11:33N 32°56' E 034°36'1616.2
2015-Jul-22 10:33N 32°53' E 034°55'12 1.5
2015-Jul-22 02:13N 32°55' E 034°40'1116.0
2015-Jul-22 01:32N 32°57' E 034°27'1616.0
2015-Jul-22 00:30N 32°60' E 034°08'1515.7
2015-Jul-21 23:33N 33°04' E 033°51'1615.6
2015-Jul-21 22:33N 33°09' E 033°34'1515.5
2015-Jul-21 21:33N 33°14' E 033°16'1515.3
2015-Jul-21 20:33N 33°20' E 032°59'1615.6
2015-Jul-21 19:32N 33°25' E 032°41'1616.0
2015-Jul-21 18:33N 33°31' E 032°24'1616.0
2015-Jul-21 17:33N 33°37' E 032°06'1716.5
2015-Jul-21 16:33N 33°43' E 031°48'1616.3
2015-Jul-21 15:33N 33°48' E 031°29'1716.1
2015-Jul-21 14:30N 33°54' E 031°10'1616.3
2015-Jul-21 13:32N 33°60' E 030°52'1716.3
2015-Jul-21 12:27N 34°06' E 030°32'13116.5
2015-Jul-21 04:33N 34°53' E 028°04'1616.1
2015-Jul-21 03:33N 34°58' E 027°46'13116.4
2015-Jul-20 19:33N 35°35' E 025°11'2216.5
2015-Jul-20 18:13N 35°38' E 024°44'1416.7
2015-Jul-20 17:24N 35°39' E 024°28'38214.2
2015-Jul-19 14:33N 40°09' E 018°44'  

Dump ship's entire track history